createdAt,value
2023-04-18T00:04:15.074Z,10.04
2023-04-18T00:09:17.329Z,10.08
2023-04-18T00:14:21.007Z,10.09
2023-04-18T00:19:23.626Z,10.07
2023-04-18T00:24:25.796Z,10.09
2023-04-18T00:29:28.049Z,10.07
2023-04-18T00:34:29.979Z,10.10
2023-04-18T00:39:31.767Z,10.04
2023-04-18T00:44:33.921Z,10.08
2023-04-18T00:49:35.827Z,10.07
2023-04-18T00:54:39.015Z,10.12
2023-04-18T00:59:41.341Z,10.11
2023-04-18T01:04:44.093Z,10.07
2023-04-18T01:09:46.342Z,10.03
2023-04-18T01:14:48.289Z,9.99
2023-04-18T01:19:51.576Z,10.05
2023-04-18T01:24:53.672Z,10.07
2023-04-18T01:29:55.661Z,10.06
2023-04-18T01:34:57.735Z,10.02
2023-04-18T01:40:00.134Z,10.07
2023-04-18T01:45:02.632Z,10.00
2023-04-18T01:50:05.133Z,9.97
2023-04-18T01:55:07.637Z,10.01
2023-04-18T02:00:11.478Z,9.99
2023-04-18T02:05:19.278Z,9.96
2023-04-18T02:10:21.272Z,9.99
2023-04-18T02:15:24.624Z,9.99
2023-04-18T02:20:28.579Z,10.00
2023-04-18T02:25:31.126Z,9.88
2023-04-18T02:30:32.950Z,9.83
2023-04-18T02:35:38.564Z,9.88
2023-04-18T02:40:40.649Z,9.98
2023-04-18T02:45:43.030Z,10.00
2023-04-18T02:50:45.062Z,10.01
2023-04-18T02:55:47.588Z,9.94
2023-04-18T03:00:53.149Z,10.00
2023-04-18T03:06:15.951Z,9.96
2023-04-18T03:11:18.175Z,9.93
2023-04-18T03:16:20.669Z,9.84
2023-04-18T03:21:24.083Z,9.82
2023-04-18T03:26:26.911Z,9.82
2023-04-18T03:31:29.418Z,9.85
2023-04-18T03:36:31.662Z,9.88
2023-04-18T03:41:34.118Z,9.93
2023-04-18T03:46:37.749Z,9.97
2023-04-18T03:51:48.072Z,9.95
2023-04-18T03:56:50.582Z,9.95
2023-04-18T04:01:53.575Z,9.97
2023-04-18T04:06:56.027Z,9.98
2023-04-18T04:11:57.877Z,9.99
2023-04-18T04:17:01.122Z,10.00
2023-04-18T04:22:04.019Z,10.03
2023-04-18T04:27:08.192Z,10.06
2023-04-18T04:32:11.035Z,10.10
2023-04-18T04:37:19.808Z,10.17
2023-04-18T04:42:32.373Z,10.16
2023-04-18T04:47:40.361Z,10.18
2023-04-18T04:52:42.755Z,10.28
2023-04-18T04:57:45.659Z,10.36
2023-04-18T05:03:00.106Z,10.37
2023-04-18T05:08:03.110Z,10.44
2023-04-18T05:13:05.513Z,10.49
2023-04-18T05:18:07.701Z,10.52
2023-04-18T05:23:10.081Z,10.58
2023-04-18T05:28:11.980Z,10.62
2023-04-18T05:33:13.853Z,10.65
2023-04-18T05:38:16.925Z,10.74
2023-04-18T05:43:19.787Z,10.82
2023-04-18T05:48:23.469Z,10.94
2023-04-18T05:53:25.806Z,11.12
2023-04-18T05:58:28.929Z,11.32
2023-04-18T06:03:30.891Z,11.45
2023-04-18T06:08:33.316Z,11.60
2023-04-18T06:13:37.385Z,11.73
2023-04-18T06:18:39.631Z,11.81
2023-04-18T06:23:41.682Z,11.78
2023-04-18T06:28:43.825Z,11.88
2023-04-18T06:33:45.629Z,12.07
2023-04-18T06:38:47.731Z,12.24
2023-04-18T06:44:02.086Z,12.30
2023-04-18T06:49:06.119Z,12.36
2023-04-18T06:54:08.091Z,12.61
2023-04-18T06:59:10.352Z,12.79
2023-04-18T07:04:12.643Z,12.90
2023-04-18T07:09:14.916Z,13.10
2023-04-18T07:14:17.008Z,13.27
2023-04-18T07:19:19.267Z,13.54
2023-04-18T07:24:23.570Z,13.85
2023-04-18T07:29:25.632Z,14.03
2023-04-18T07:34:30.005Z,14.07
2023-04-18T07:39:35.962Z,14.07
2023-04-18T07:44:37.964Z,14.04
2023-04-18T07:49:40.101Z,14.08
2023-04-18T07:54:41.987Z,14.27
2023-04-18T07:59:44.054Z,14.60
2023-04-18T08:04:47.480Z,14.85
2023-04-18T08:09:49.678Z,14.91
2023-04-18T08:14:51.554Z,14.86
2023-04-18T08:19:53.556Z,14.74
2023-04-18T08:25:04.288Z,14.57
2023-04-18T08:30:09.850Z,14.63
2023-04-18T08:35:11.846Z,14.71
2023-04-18T08:40:14.622Z,14.81
2023-04-18T08:45:18.691Z,14.91
2023-04-18T08:50:21.634Z,14.98
2023-04-18T08:55:23.630Z,15.02
2023-04-18T09:00:27.289Z,15.04
2023-04-18T09:05:29.838Z,15.17
2023-04-18T09:10:33.913Z,15.21
2023-04-18T09:15:35.864Z,15.31
2023-04-18T09:20:43.828Z,15.49
2023-04-18T09:25:48.140Z,15.71
2023-04-18T09:30:54.389Z,15.97
2023-04-18T09:35:57.339Z,16.18
2023-04-18T09:41:11.738Z,16.14
2023-04-18T09:46:14.650Z,15.96
2023-04-18T09:51:18.740Z,15.89
2023-04-18T09:56:32.722Z,15.92
2023-04-18T10:01:35.880Z,16.02
2023-04-18T10:06:39.902Z,16.26
2023-04-18T10:11:42.366Z,16.39
2023-04-18T10:16:49.958Z,16.63
2023-04-18T10:21:58.459Z,16.96
2023-04-18T10:27:00.328Z,17.00
2023-04-18T10:32:07.195Z,17.03
2023-04-18T10:37:09.461Z,16.85
2023-04-18T10:42:11.617Z,16.82
2023-04-18T10:47:19.824Z,16.83
2023-04-18T10:52:22.022Z,16.86
2023-04-18T10:57:24.028Z,16.67
2023-04-18T11:02:30.158Z,16.83
2023-04-18T11:07:36.992Z,16.70
2023-04-18T11:12:40.830Z,16.61
2023-04-18T11:17:44.207Z,16.54
2023-04-18T11:22:51.456Z,16.56
2023-04-18T11:27:55.905Z,16.72
2023-04-18T11:32:58.043Z,17.16
2023-04-18T11:38:00.936Z,17.30
2023-04-18T11:43:05.876Z,17.38
2023-04-18T11:48:07.765Z,17.35
2023-04-18T11:53:10.568Z,17.27
2023-04-18T11:58:12.776Z,17.21
2023-04-18T12:03:17.089Z,17.31
2023-04-18T12:08:20.643Z,17.42
2023-04-18T12:13:27.497Z,17.49
2023-04-18T12:18:30.021Z,17.51
2023-04-18T12:23:35.978Z,17.56
2023-04-18T12:28:38.809Z,17.75
2023-04-18T12:33:41.234Z,17.94
2023-04-18T12:38:43.291Z,18.20
2023-04-18T12:43:45.434Z,18.43
2023-04-18T12:48:47.519Z,18.53
2023-04-18T12:53:49.718Z,18.50
2023-04-18T12:58:51.834Z,18.51
2023-04-18T13:04:08.325Z,18.72
2023-04-18T13:09:13.450Z,18.98
2023-04-18T13:14:16.267Z,19.35
2023-04-18T13:19:18.090Z,19.52
2023-04-18T13:24:20.401Z,19.42
2023-04-18T13:29:22.689Z,19.21
2023-04-18T13:34:24.775Z,19.30
2023-04-18T13:39:26.596Z,19.31
2023-04-18T13:44:29.501Z,19.25
2023-04-18T13:49:32.678Z,19.21
2023-04-18T13:54:35.456Z,19.25
2023-04-18T13:59:42.438Z,19.39
2023-04-18T14:04:44.931Z,19.44
2023-04-18T14:09:48.391Z,19.38
2023-04-18T14:14:50.432Z,19.26
2023-04-18T14:20:11.696Z,19.11
2023-04-18T14:25:14.332Z,19.06
2023-04-18T14:30:16.749Z,19.10
2023-04-18T14:35:19.042Z,19.33
2023-04-18T14:40:22.798Z,19.27
2023-04-18T14:45:25.680Z,19.11
2023-04-18T14:50:27.810Z,19.03
2023-04-18T14:55:30.179Z,18.86
2023-04-18T15:00:34.011Z,18.66
2023-04-18T15:05:39.175Z,18.37
2023-04-18T15:10:46.561Z,18.22
2023-04-18T15:15:56.908Z,18.14
2023-04-18T15:20:59.723Z,18.23
2023-04-18T15:26:01.887Z,18.30
2023-04-18T15:31:06.173Z,18.26
2023-04-18T15:36:09.213Z,17.93
2023-04-18T15:41:11.281Z,17.63
2023-04-18T15:46:14.214Z,17.32
2023-04-18T15:51:16.098Z,17.05
2023-04-18T15:56:18.371Z,16.82
2023-04-18T16:01:20.956Z,16.61
2023-04-18T16:06:23.503Z,16.48
2023-04-18T16:11:29.039Z,16.35
2023-04-18T16:16:31.092Z,16.21
2023-04-18T16:21:33.108Z,16.14
2023-04-18T16:26:35.166Z,16.11
2023-04-18T16:31:37.335Z,16.15
2023-04-18T16:36:39.801Z,16.08
2023-04-18T16:41:41.816Z,16.08
2023-04-18T16:46:44.409Z,16.08
2023-04-18T16:51:46.707Z,16.02
2023-04-18T16:56:49.216Z,16.01
2023-04-18T17:01:51.629Z,15.78
2023-04-18T17:06:53.789Z,15.54
2023-04-18T17:11:55.724Z,15.33
2023-04-18T17:16:57.866Z,15.21
2023-04-18T17:22:00.389Z,15.13
2023-04-18T17:27:02.536Z,15.05
2023-04-18T17:32:05.210Z,14.98
2023-04-18T17:37:07.481Z,14.85
2023-04-18T17:42:09.709Z,14.75
2023-04-18T17:47:11.935Z,14.69
2023-04-18T17:52:14.024Z,14.60
2023-04-18T17:57:16.723Z,14.55
2023-04-18T18:02:19.409Z,14.45
2023-04-18T18:07:21.533Z,14.34
2023-04-18T18:12:23.428Z,14.32
2023-04-18T18:17:25.526Z,14.20
2023-04-18T18:22:28.270Z,14.17
2023-04-18T18:27:30.263Z,14.11
2023-04-18T18:32:32.472Z,14.02
2023-04-18T18:37:34.554Z,13.99
2023-04-18T18:42:36.746Z,13.98
2023-04-18T18:47:40.011Z,13.94
2023-04-18T18:52:43.250Z,13.81
2023-04-18T18:57:45.539Z,13.75
2023-04-18T19:02:47.789Z,13.68
2023-04-18T19:07:51.490Z,13.52
2023-04-18T19:12:53.468Z,13.44
2023-04-18T19:17:59.118Z,13.30
2023-04-18T19:23:01.032Z,13.11
2023-04-18T19:28:06.972Z,13.01
2023-04-18T19:33:09.685Z,12.74
2023-04-18T19:38:11.880Z,12.46
2023-04-18T19:43:13.872Z,12.28
2023-04-18T19:48:16.245Z,12.19
2023-04-18T19:53:19.223Z,12.19
2023-04-18T19:58:45.113Z,12.21
2023-04-18T20:03:48.805Z,12.29
2023-04-18T20:08:51.315Z,12.33
2023-04-18T20:13:56.769Z,12.36
2023-04-18T20:18:58.857Z,12.41
2023-04-18T20:24:01.535Z,12.45
2023-04-18T20:29:04.024Z,12.50
2023-04-18T20:34:06.993Z,12.53
2023-04-18T20:39:09.490Z,12.54
2023-04-18T20:44:13.851Z,12.59
2023-04-18T20:49:16.557Z,12.61
2023-04-18T20:54:18.849Z,12.65
2023-04-18T20:59:21.490Z,12.66
2023-04-18T21:04:23.934Z,12.70
2023-04-18T21:09:26.688Z,12.70
2023-04-18T21:14:36.058Z,12.71
2023-04-18T21:19:38.213Z,12.69
2023-04-18T21:24:40.667Z,12.69
2023-04-18T21:29:42.921Z,12.66
2023-04-18T21:34:44.986Z,12.65
2023-04-18T21:39:47.237Z,12.66
2023-04-18T21:44:49.637Z,12.66
2023-04-18T21:49:56.679Z,12.61
2023-04-18T21:54:59.962Z,12.60
2023-04-18T22:00:02.440Z,12.62
2023-04-18T22:05:13.389Z,12.61
2023-04-18T22:10:16.556Z,12.56
2023-04-18T22:15:18.359Z,12.52
2023-04-18T22:20:21.554Z,12.49
2023-04-18T22:25:23.341Z,12.45
2023-04-18T22:30:25.575Z,12.45
2023-04-18T22:35:27.945Z,12.35
2023-04-18T22:40:29.991Z,12.27
2023-04-18T22:45:33.794Z,12.23
2023-04-18T22:50:37.913Z,12.25
2023-04-18T22:55:44.352Z,12.25
2023-04-18T23:00:46.824Z,12.24
2023-04-18T23:05:48.869Z,12.24
2023-04-18T23:10:53.206Z,12.28
2023-04-18T23:16:01.403Z,12.23
2023-04-18T23:21:03.700Z,12.20
2023-04-18T23:26:13.301Z,12.21
2023-04-18T23:31:15.625Z,12.12
2023-04-18T23:36:17.758Z,12.09
2023-04-18T23:41:20.422Z,12.05
2023-04-18T23:46:22.884Z,12.02
2023-04-18T23:51:27.777Z,12.01
2023-04-18T23:56:29.803Z,11.97
